Time;durP1;ratioP1;P1;durP2;ratioP2;P2;SDS_P1;SDS_P2;PMS_P1;PMS_P2;Temp;Humidity;BMP_temperature;BMP_pressure;BME280_temperature;BME280_humidity;BME280_pressure;Samples;Min_cycle;Max_cycle;Signal;HPM_P1;HPM_P2
2022/08/20 00:01:04;;;;;;;2.13;1.70;;;;;;;23.83;64.44;100825.03;5070028;28;20106;-81
2022/08/20 00:03:34;;;;;;;1.60;1.35;;;;;;;23.79;64.66;100814.88;5069640;28;20084;-78
2022/08/20 00:06:07;;;;;;;3.83;1.70;;;;;;;23.55;64.26;100783.91;5070497;28;20084;-78
2022/08/20 00:08:35;;;;;;;3.20;1.80;;;;;;;23.70;64.67;100816.13;5070173;28;20067;-78
2022/08/20 00:11:05;;;;;;;9.00;2.30;;;;;;;23.64;64.31;100783.44;5070228;28;20072;-78
2022/08/20 00:13:35;;;;;;;3.70;1.73;;;;;;;23.79;63.63;100779.63;5070529;28;20139;-78
2022/08/20 00:16:03;;;;;;;4.07;2.08;;;;;;;23.75;63.64;100768.38;5070149;28;20052;-78
2022/08/20 00:18:30;;;;;;;4.13;1.50;;;;;;;23.76;63.74;100783.59;5069885;28;20548;-78
2022/08/20 00:20:57;;;;;;;2.30;1.70;;;;;;;23.77;64.01;100798.00;5069906;28;20052;-79
2022/08/20 00:23:24;;;;;;;5.05;1.50;;;;;;;23.70;64.23;100802.59;5066462;28;20045;-79
2022/08/20 00:25:51;;;;;;;2.92;1.80;;;;;;;23.63;64.72;100800.72;5067755;28;20192;-78
2022/08/20 00:28:18;;;;;;;6.95;1.88;;;;;;;23.16;64.86;100732.44;5067487;28;20048;-78
2022/08/20 00:30:45;;;;;;;4.95;1.88;;;;;;;23.11;64.92;100729.56;5067771;28;20079;-78
2022/08/20 00:33:15;;;;;;;4.25;1.60;;;;;;;23.52;64.97;100812.28;5049008;28;20379;-78
2022/08/20 00:35:45;;;;;;;6.00;1.90;;;;;;;23.52;64.99;100809.56;5065734;28;20151;-78
2022/08/20 00:38:13;;;;;;;3.05;1.60;;;;;;;23.37;65.14;100795.47;5049438;28;20122;-78
2022/08/20 00:40:44;;;;;;;2.92;1.83;;;;;;;23.66;65.26;100802.19;5049475;28;20499;-78
2022/08/20 00:43:45;;;;;;;2.20;1.73;;;;;;;23.64;64.71;100778.03;5049463;28;20303;-80
2022/08/20 00:46:22;;;;;;;2.55;2.00;;;;;;;23.81;64.15;100804.59;5038662;28;20098;-78
2022/08/20 00:48:57;;;;;;;6.53;2.40;;;;;;;23.82;64.22;100798.97;5050821;28;20122;-79
2022/08/20 00:51:38;;;;;;;4.13;1.63;;;;;;;23.77;64.23;100801.53;5049227;28;20045;-79
2022/08/20 00:54:12;;;;;;;5.03;2.00;;;;;;;23.59;64.38;100753.47;5049424;28;20083;-78
2022/08/20 00:56:42;;;;;;;6.05;2.53;;;;;;;23.81;63.92;100782.94;5049406;28;20048;-78
2022/08/20 00:59:16;;;;;;;4.93;2.10;;;;;;;23.70;64.39;100786.31;5074815;28;20044;-79
2022/08/20 01:01:44;;;;;;;7.40;2.35;;;;;;;23.37;64.06;100749.41;5069003;28;20132;-78
2022/08/20 01:04:25;;;;;;;5.78;2.03;;;;;;;23.56;64.04;100791.81;5070816;28;20036;-78
2022/08/20 01:06:53;;;;;;;4.43;1.77;;;;;;;23.49;64.15;100796.44;5069044;28;20774;-78
2022/08/20 01:09:20;;;;;;;2.58;2.03;;;;;;;23.41;64.86;100791.28;5068715;28;20079;-78
2022/08/20 01:12:08;;;;;;;4.20;1.80;;;;;;;23.15;65.08;100765.16;5072031;28;20207;-79
2022/08/20 01:17:07;;;;;;;4.35;2.05;;;;;;;23.28;65.43;100791.34;5087498;28;20056;-78
2022/08/20 01:19:43;;;;;;;4.53;2.05;;;;;;;23.36;65.49;100793.81;5091730;28;20051;-78
2022/08/20 01:25:08;;;;;;;9.05;2.08;;;;;;;23.56;64.51;100786.41;5066753;28;20516;-78
2022/08/20 01:27:37;;;;;;;3.53;1.90;;;;;;;23.56;64.52;100791.81;5049217;28;20087;-78
2022/08/20 01:30:09;;;;;;;5.22;2.08;;;;;;;23.61;64.54;100783.84;5066564;28;20500;-79
2022/08/20 01:32:36;;;;;;;6.20;2.03;;;;;;;23.77;64.21;100781.72;5066517;28;20593;-79
2022/08/20 01:35:04;;;;;;;3.40;2.08;;;;;;;23.87;63.56;100774.75;5048833;28;20098;-79
2022/08/20 01:37:31;;;;;;;2.67;1.90;;;;;;;23.74;63.04;100765.88;5066224;28;20064;-80
2022/08/20 01:39:58;;;;;;;2.17;1.83;;;;;;;23.48;63.55;100737.91;5049023;28;20098;-79
2022/08/20 01:42:51;;;;;;;10.65;2.08;;;;;;;23.51;63.69;100764.53;5065309;28;20049;-78
2022/08/20 01:45:27;;;;;;;5.93;1.70;;;;;;;23.46;64.03;100764.38;5065197;28;20288;-79
2022/08/20 01:47:56;;;;;;;4.80;2.00;;;;;;;23.47;64.61;100774.16;5065362;28;20472;-79
2022/08/20 01:50:27;;;;;;;2.25;1.45;;;;;;;23.52;64.17;100763.50;5065095;28;20300;-79
2022/08/20 01:52:59;;;;;;;7.00;1.88;;;;;;;23.51;63.82;100772.66;5047622;28;20048;-79
2022/08/20 01:55:26;;;;;;;3.50;2.00;;;;;;;23.02;64.20;100703.78;5047677;28;20087;-78
2022/08/20 01:57:53;;;;;;;7.65;1.92;;;;;;;23.23;64.36;100744.09;5048138;28;20488;-78
2022/08/20 02:00:21;;;;;;;3.80;1.70;;;;;;;23.32;64.38;100757.34;5069237;28;20496;-78
2022/08/20 02:02:48;;;;;;;2.83;1.83;;;;;;;23.31;64.54;100766.53;5067679;28;20096;-78
2022/08/20 02:05:16;;;;;;;7.25;1.80;;;;;;;23.16;64.73;100753.28;5067594;28;20480;-80
2022/08/20 02:07:43;;;;;;;4.72;2.17;;;;;;;23.13;64.54;100759.97;5067555;28;20125;-79
2022/08/20 02:10:12;;;;;;;4.35;1.90;;;;;;;23.10;64.50;100763.09;5067716;28;20148;-78
2022/08/20 02:12:39;;;;;;;9.48;2.03;;;;;;;23.06;64.92;100775.41;5067498;28;20159;-79
2022/08/20 02:15:09;;;;;;;2.78;1.55;;;;;;;23.05;65.15;100776.44;5068550;28;20099;-78
2022/08/20 02:17:36;;;;;;;2.70;1.50;;;;;;;;;;5067024;28;20054;-78
2022/08/20 02:20:09;;;;;;;2.20;1.88;;;;;;;23.10;64.78;100792.88;5086220;28;20068;-79
2022/08/20 02:22:50;;;;;;;4.32;1.90;;;;;;;23.13;64.90;100787.06;5071617;28;20040;-78
2022/08/20 02:25:19;;;;;;;6.30;2.17;;;;;;;23.14;65.13;100788.69;5090002;28;20083;-78
2022/08/20 02:27:50;;;;;;;5.28;1.67;;;;;;;22.98;65.53;100772.94;5072632;28;20086;-78
2022/08/20 02:30:32;;;;;;;6.65;1.73;;;;;;;23.00;65.84;100787.09;5071900;28;20059;-79
2022/08/20 02:33:01;;;;;;;4.43;1.65;;;;;;;22.95;66.06;100784.97;5088872;28;20489;-82
2022/08/20 02:35:29;;;;;;;4.85;2.10;;;;;;;22.98;65.70;100778.34;5088939;28;20052;-77
2022/08/20 02:37:56;;;;;;;6.72;2.78;;;;;;;23.06;65.38;100785.38;5071903;28;20152;-78
2022/08/20 02:40:26;;;;;;;4.18;1.88;;;;;;;22.35;65.63;100676.94;5071589;28;20044;-79
2022/08/20 02:43:00;;;;;;;2.15;1.90;;;;;;;23.02;65.84;100769.59;5072077;28;20040;-78
2022/08/20 02:45:29;;;;;;;4.43;2.08;;;;;;;22.69;66.05;100730.94;5089784;28;20141;-78
2022/08/20 02:47:57;;;;;;;3.10;1.70;;;;;;;23.00;65.75;100776.25;5071236;28;20290;-81
2022/08/20 02:50:25;;;;;;;5.28;2.10;;;;;;;23.10;65.44;100771.22;5070783;28;20109;-80
2022/08/20 02:52:53;;;;;;;8.07;2.40;;;;;;;23.13;64.95;100765.38;5088425;28;20495;-79
2022/08/20 02:55:21;;;;;;;3.92;1.65;;;;;;;23.18;65.27;100776.41;5070532;28;20047;-79
2022/08/20 02:57:55;;;;;;;2.90;1.70;;;;;;;23.23;64.84;100768.47;5072234;28;20048;-79
2022/08/20 03:00:25;;;;;;;5.18;1.70;;;;;;;23.25;64.75;100766.38;5089419;28;20060;-79
2022/08/20 03:02:51;;;;;;;5.65;1.88;;;;;;;22.93;65.33;100724.81;5071200;28;20086;-81
2022/08/20 03:05:18;;;;;;;4.05;1.80;;;;;;;23.04;65.61;100764.78;5089243;28;20040;-79
2022/08/20 03:07:48;;;;;;;2.42;1.90;;;;;;;22.98;65.68;100748.56;5070027;28;20427;-79
2022/08/20 03:10:15;;;;;;;2.47;1.80;;;;;;;22.98;65.07;100746.69;5088560;28;20576;-79
2022/08/20 03:12:42;;;;;;;3.17;1.75;;;;;;;23.15;64.58;100768.69;5089803;28;20139;-80
2022/08/20 03:15:10;;;;;;;1.85;1.70;;;;;;;23.19;65.19;100764.50;5089261;28;20048;-80
2022/08/20 03:17:43;;;;;;;3.95;1.95;;;;;;;23.19;64.57;100759.09;5079558;28;20048;-80
2022/08/20 03:20:12;;;;;;;2.13;1.92;;;;;;;23.25;64.26;100762.81;5093923;28;20039;-81
2022/08/20 03:22:39;;;;;;;2.53;1.95;;;;;;;23.30;64.02;100764.88;5095257;28;20040;-80
2022/08/20 03:25:06;;;;;;;4.22;2.00;;;;;;;23.10;64.26;100717.06;5093158;28;20109;-81
2022/08/20 03:27:33;;;;;;;3.80;1.95;;;;;;;23.04;63.67;100696.28;5087135;28;20412;-79
2022/08/20 03:30:05;;;;;;;4.75;1.92;;;;;;;23.36;63.25;100762.13;5072821;28;20101;-79
2022/08/20 03:32:32;;;;;;;2.55;1.60;;;;;;;23.13;63.98;100732.91;5070871;28;20087;-80
2022/08/20 03:34:58;;;;;;;7.53;1.80;;;;;;;23.31;63.11;100755.72;5070725;28;20149;-79
2022/08/20 03:37:29;;;;;;;2.95;1.85;;;;;;;23.33;63.15;100754.44;5070676;28;20048;-80
2022/08/20 03:39:56;;;;;;;2.10;1.80;;;;;;;23.31;63.91;100751.13;5070692;28;20520;-79
2022/08/20 03:42:23;;;;;;;5.35;2.55;;;;;;;23.39;63.08;100752.75;5071394;28;20117;-77
2022/08/20 03:44:50;;;;;;;2.17;1.55;;;;;;;23.20;63.48;100720.13;5070715;28;20507;-79
2022/08/20 03:47:25;;;;;;;5.88;2.40;;;;;;;23.23;63.36;100733.25;5072450;28;20048;-78
2022/08/20 03:49:57;;;;;;;2.53;1.58;;;;;;;23.25;64.24;100754.69;5088814;28;20047;-77
2022/08/20 03:52:26;;;;;;;2.92;2.00;;;;;;;23.24;63.74;100756.56;5088714;28;20040;-78
2022/08/20 03:54:52;;;;;;;1.85;1.73;;;;;;;22.92;63.74;100697.97;5070600;28;20099;-77
2022/08/20 03:57:19;;;;;;;4.45;2.22;;;;;;;22.89;64.02;100709.22;5069594;28;20125;-78
2022/08/20 03:59:45;;;;;;;6.88;2.92;;;;;;;22.94;64.38;100740.03;5070178;28;20041;-78
2022/08/20 04:02:20;;;;;;;5.75;2.20;;;;;;;22.98;64.74;100756.69;5070800;28;20514;-78
2022/08/20 04:04:47;;;;;;;3.00;2.30;;;;;;;22.85;64.59;100756.72;5088572;28;20190;-78
2022/08/20 04:07:24;;;;;;;7.43;2.15;;;;;;;22.84;65.00;100755.88;5070300;28;20044;-79
2022/08/20 04:09:52;;;;;;;7.78;2.58;;;;;;;22.79;64.93;100761.94;5069320;28;20052;-79
2022/08/20 04:12:19;;;;;;;5.78;2.35;;;;;;;22.81;65.21;100749.00;5069916;28;20124;-79
2022/08/20 04:14:46;;;;;;;9.43;2.15;;;;;;;22.75;65.06;100735.53;5088636;28;20044;-79
2022/08/20 04:17:13;;;;;;;4.97;2.22;;;;;;;22.81;65.39;100770.66;5069999;28;20423;-80
2022/08/20 04:19:40;;;;;;;7.32;2.33;;;;;;;22.75;65.36;100768.00;5069879;28;20085;-78
2022/08/20 04:22:06;;;;;;;2.67;2.20;;;;;;;22.60;65.75;100754.72;5069385;28;20114;-78
2022/08/20 04:24:36;;;;;;;4.43;2.78;;;;;;;22.66;65.75;100772.78;5087397;28;20128;-79
2022/08/20 04:27:03;;;;;;;7.38;2.30;;;;;;;22.57;65.46;100745.16;5069591;28;20102;-78
2022/08/20 04:29:32;;;;;;;7.00;2.28;;;;;;;22.73;65.38;100770.91;5069202;28;20072;-78
2022/08/20 04:32:02;;;;;;;5.60;1.88;;;;;;;22.70;65.32;100773.22;5069438;28;20430;-78
2022/08/20 04:34:32;;;;;;;3.47;2.10;;;;;;;22.66;65.17;100775.50;5087683;28;20523;-78
2022/08/20 04:36:58;;;;;;;3.58;2.08;;;;;;;22.63;65.03;100775.94;5069319;28;20040;-79
2022/08/20 04:39:25;;;;;;;3.63;2.10;;;;;;;22.64;64.80;100783.00;5068971;28;20340;-79
2022/08/20 04:41:52;;;;;;;9.77;2.10;;;;;;;22.68;65.16;100794.25;5069299;28;20044;-78
2022/08/20 04:44:20;;;;;;;5.03;2.35;;;;;;;22.57;65.06;100768.63;5068132;28;20499;-78
2022/08/20 04:46:47;;;;;;;5.10;2.30;;;;;;;22.22;65.43;100714.00;5069242;28;20101;-78
2022/08/20 04:49:14;;;;;;;7.70;2.60;;;;;;;22.63;65.26;100788.63;5069349;28;20052;-78
2022/08/20 04:51:41;;;;;;;5.65;2.20;;;;;;;22.48;65.64;100759.94;5068962;28;20142;-78
2022/08/20 04:54:08;;;;;;;6.35;2.80;;;;;;;22.64;65.34;100793.81;5070086;28;20048;-78
2022/08/20 04:56:38;;;;;;;2.88;2.40;;;;;;;22.63;65.51;100786.75;5070836;28;20051;-78
2022/08/20 04:59:06;;;;;;;4.22;2.40;;;;;;;22.63;65.72;100792.16;5069317;28;20140;-78
2022/08/20 05:01:33;;;;;;;3.88;2.30;;;;;;;22.66;66.14;100789.03;5068637;28;20483;-77
2022/08/20 05:04:00;;;;;;;5.72;2.50;;;;;;;22.77;65.92;100785.69;5068838;28;20044;-80
2022/08/20 05:06:30;;;;;;;5.38;3.08;;;;;;;22.91;65.21;100794.56;5068923;28;20121;-78
2022/08/20 05:08:58;;;;;;;6.53;2.78;;;;;;;22.92;65.15;100793.53;5087112;28;20128;-77
2022/08/20 05:11:26;;;;;;;5.32;2.88;;;;;;;23.00;65.03;100803.34;5068973;28;20340;-78
2022/08/20 05:14:03;;;;;;;5.22;2.92;;;;;;;22.89;64.92;100782.28;5069957;28;20051;-79
2022/08/20 05:16:36;;;;;;;7.22;2.60;;;;;;;22.96;65.55;100792.09;5068746;28;20319;-76
2022/08/20 05:19:04;;;;;;;8.43;2.85;;;;;;;22.96;65.31;100796.63;5068768;28;20079;-78
2022/08/20 05:21:31;;;;;;;14.43;2.97;;;;;;;22.80;65.35;100765.47;5087024;28;20109;-78
2022/08/20 05:23:57;;;;;;;3.97;2.40;;;;;;;22.97;65.45;100798.31;5065193;28;20075;-77
2022/08/20 05:26:25;;;;;;;8.18;3.03;;;;;;;22.96;65.53;100789.38;5048856;28;20481;-77
2022/08/20 05:28:51;;;;;;;2.35;1.90;;;;;;;22.68;65.20;100735.53;5069734;28;20049;-78
2022/08/20 05:31:27;;;;;;;2.63;2.30;;;;;;;23.08;65.30;100800.38;5068247;28;20056;-79
2022/08/20 05:33:58;;;;;;;3.58;2.50;;;;;;;23.16;64.97;100793.91;5049849;28;20095;-78
2022/08/20 05:36:25;;;;;;;6.63;2.45;;;;;;;23.12;64.98;100798.09;5048510;28;20052;-78
2022/08/20 05:38:52;;;;;;;5.43;2.80;;;;;;;23.15;65.16;100803.06;5065375;28;20060;-78
2022/08/20 05:41:19;;;;;;;5.68;2.38;;;;;;;23.16;65.50;100800.16;5064735;28;20475;-79
2022/08/20 05:43:59;;;;;;;4.45;2.47;;;;;;;23.10;65.48;100792.88;5064500;28;20044;-78
2022/08/20 05:46:28;;;;;;;3.72;2.70;;;;;;;23.20;65.11;100798.66;5066051;28;20055;-79
2022/08/20 05:48:55;;;;;;;7.10;3.33;;;;;;;23.22;65.69;100806.56;5064737;28;20084;-78
2022/08/20 05:51:25;;;;;;;3.93;2.50;;;;;;;23.18;65.66;100798.06;5065858;28;20052;-78
2022/08/20 05:53:52;;;;;;;4.65;2.55;;;;;;;23.25;65.82;100804.28;5065846;28;20105;-78
2022/08/20 05:56:18;;;;;;;3.67;2.80;;;;;;;23.31;65.13;100790.94;5067993;28;20416;-78
2022/08/20 05:58:52;;;;;;;4.25;2.67;;;;;;;23.33;65.12;100783.41;5075108;28;20044;-78
2022/08/20 06:01:19;;;;;;;3.40;2.13;;;;;;;22.97;63.46;100707.09;5072033;28;20072;-79
2022/08/20 06:06:31;;;;;;;2.20;2.00;;;;;;;23.85;61.76;100800.41;5091238;28;20047;-78
2022/08/20 06:09:13;;;;;;;4.95;2.50;;;;;;;23.86;62.47;100807.50;5097816;28;20044;-78
2022/08/20 06:11:40;;;;;;;2.55;2.00;;;;;;;23.97;60.88;100805.97;5092489;28;20048;-79
2022/08/20 06:14:06;;;;;;;3.58;2.80;;;;;;;23.86;61.19;100783.09;5092259;28;20069;-78
2022/08/20 06:16:33;;;;;;;6.28;2.28;;;;;;;24.05;61.64;100806.50;5092153;28;20051;-77
2022/08/20 06:19:03;;;;;;;4.32;1.92;;;;;;;24.14;60.81;100803.56;5090242;28;20044;-78
2022/08/20 06:21:30;;;;;;;6.03;2.38;;;;;;;23.91;60.65;100763.47;5069446;28;20093;-78
2022/08/20 06:23:56;;;;;;;4.75;2.38;;;;;;;24.21;60.05;100798.91;5071795;28;20153;-78
2022/08/20 06:26:26;;;;;;;2.83;2.13;;;;;;;24.29;59.85;100799.44;5072536;28;20036;-78
2022/08/20 06:28:58;;;;;;;9.32;2.35;;;;;;;24.38;58.58;100793.75;5014789;28;20450;-79
2022/08/20 06:31:26;;;;;;;4.28;1.80;;;;;;;24.49;58.20;100807.44;5040767;28;20177;-78
2022/08/20 06:33:53;;;;;;;4.13;2.22;;;;;;;24.51;57.84;100799.88;5035961;28;20045;-78
2022/08/20 06:36:20;;;;;;;2.65;1.83;;;;;;;24.44;58.55;100788.25;5047649;28;20106;-78
2022/08/20 06:38:46;;;;;;;3.25;1.90;;;;;;;24.77;58.04;100818.88;5024177;28;20045;-77
2022/08/20 06:41:13;;;;;;;7.30;2.08;;;;;;;24.72;57.80;100800.53;5026036;28;20304;-80
2022/08/20 06:43:40;;;;;;;2.45;1.80;;;;;;;24.77;57.52;100802.56;5041281;28;20053;-78
2022/08/20 06:46:07;;;;;;;2.28;1.98;;;;;;;24.81;57.45;100804.63;5027839;28;20106;-78
2022/08/20 06:48:35;;;;;;;6.47;2.35;;;;;;;24.50;56.61;100733.09;5013501;28;20563;-78
2022/08/20 06:51:05;;;;;;;2.95;2.22;;;;;;;24.95;56.61;100806.13;5008914;28;20224;-80
2022/08/20 06:53:31;;;;;;;2.92;1.85;;;;;;;24.72;56.58;100762.53;4965670;28;20551;-80
2022/08/20 06:55:58;;;;;;;2.40;2.03;;;;;;;25.03;55.21;100796.03;5011070;28;20179;-79
2022/08/20 06:58:26;;;;;;;5.55;2.25;;;;;;;25.07;56.46;100800.75;5010803;28;20633;-79
2022/08/20 07:01:09;;;;;;;2.30;1.88;;;;;;;24.91;56.85;100764.19;5027982;28;20064;-79
2022/08/20 07:03:39;;;;;;;3.00;1.90;;;;;;;25.08;56.02;100777.16;4949761;28;20134;-79
2022/08/20 07:06:19;;;;;;;4.80;1.90;;;;;;;24.92;56.33;100746.81;5037017;28;20118;-79
2022/08/20 07:08:46;;;;;;;4.15;2.17;;;;;;;24.61;56.64;100684.56;5031071;28;20589;-78
2022/08/20 07:11:12;;;;;;;5.13;1.98;;;;;;;25.41;56.15;100803.91;5062311;28;20107;-76
2022/08/20 07:13:40;;;;;;;5.03;2.00;;;;;;;25.52;54.64;100805.03;5043740;28;20292;-78
2022/08/20 07:16:07;;;;;;;2.20;1.67;;;;;;;25.60;53.24;100796.53;5011498;28;20626;-78
2022/08/20 07:18:36;;;;;;;2.35;2.03;;;;;;;25.47;54.45;100791.28;4980306;28;20346;-75
2022/08/20 07:21:03;;;;;;;2.03;1.70;;;;;;;25.55;54.87;100796.41;5055726;28;20049;-77
2022/08/20 07:23:30;;;;;;;1.98;1.73;;;;;;;25.34;53.04;100760.53;5025794;28;20419;-78
2022/08/20 07:25:57;;;;;;;3.70;2.05;;;;;;;25.39;54.54;100770.72;5031065;28;20453;-77
2022/08/20 07:28:30;;;;;;;4.55;1.73;;;;;;;25.59;53.62;100778.56;5048755;28;20052;-77
2022/08/20 07:33:45;;;;;;;4.60;2.03;;;;;;;25.66;53.06;100783.91;5046087;28;20057;-78
2022/08/20 07:36:16;;;;;;;2.10;1.90;;;;;;;25.67;52.48;100767.34;5029452;28;20255;-77
2022/08/20 07:38:45;;;;;;;4.40;2.08;;;;;;;25.55;52.54;100752.91;4970947;28;20261;-78
2022/08/20 07:41:13;;;;;;;8.23;2.17;;;;;;;25.74;53.20;100780.84;5029333;28;20126;-78
2022/08/20 07:43:44;;;;;;;4.70;2.40;;;;;;;25.86;53.10;100789.09;5028353;28;20105;-79
2022/08/20 07:46:12;;;;;;;3.00;1.77;;;;;;;25.91;53.45;100811.78;5027541;28;20075;-77
2022/08/20 07:48:44;;;;;;;1.98;1.80;;;;;;;25.93;54.29;100817.00;5047545;28;20135;-76
2022/08/20 07:51:16;;;;;;;2.78;1.92;;;;;;;25.87;54.73;100807.03;5004285;28;20501;-78
2022/08/20 07:53:45;;;;;;;2.30;1.98;;;;;;;26.08;53.01;100825.53;5040024;28;20094;-78
2022/08/20 07:56:15;;;;;;;2.95;1.85;;;;;;;25.85;53.63;100790.09;5025886;28;20537;-77
2022/08/20 07:58:55;;;;;;;7.72;2.45;;;;;;;26.08;52.38;100809.22;5035555;28;20053;-77
2022/08/20 08:01:25;;;;;;;4.05;2.47;;;;;;;26.09;53.00;100832.63;5048121;28;20200;-78
2022/08/20 08:03:52;;;;;;;3.10;1.90;;;;;;;26.17;51.15;100824.16;5027155;28;20499;-78
2022/08/20 08:06:26;;;;;;;2.35;2.10;;;;;;;26.19;51.83;100835.63;5027874;28;20059;-78
2022/08/20 08:09:17;;;;;;;3.40;2.38;;;;;;;26.25;50.30;100830.31;4989245;28;20045;-79
2022/08/20 08:11:48;;;;;;;3.72;2.20;;;;;;;26.21;51.90;100835.38;5034994;28;20437;-78
2022/08/20 08:14:23;;;;;;;2.85;1.85;;;;;;;26.43;49.45;100849.25;5047304;28;20041;-79
2022/08/20 08:16:52;;;;;;;4.07;2.08;;;;;;;26.42;49.81;100839.44;5055896;28;20136;-78
2022/08/20 08:19:20;;;;;;;3.38;2.10;;;;;;;26.31;51.10;100841.09;5049112;28;20032;-78
2022/08/20 08:21:48;;;;;;;6.80;2.25;;;;;;;26.36;51.00;100843.06;5022859;28;20267;-79
2022/08/20 08:24:17;;;;;;;3.70;2.85;;;;;;;26.43;50.45;100843.78;4993701;28;20057;-77
2022/08/20 08:26:49;;;;;;;3.95;2.13;;;;;;;26.60;50.06;100850.25;5023268;28;20530;-76
2022/08/20 08:29:16;;;;;;;8.95;2.42;;;;;;;26.32;49.58;100796.47;5006618;28;20072;-76
2022/08/20 08:31:43;;;;;;;3.65;1.70;;;;;;;26.54;51.11;100840.28;5032628;28;20049;-78
2022/08/20 08:34:10;;;;;;;3.92;2.22;;;;;;;26.70;50.69;100848.81;4971981;28;20092;-78
2022/08/20 08:36:38;;;;;;;2.42;2.20;;;;;;;26.56;50.07;100826.44;5043455;28;20492;-77
2022/08/20 08:39:06;;;;;;;2.10;1.90;;;;;;;26.53;50.16;100815.97;4954343;28;20110;-78
2022/08/20 08:41:36;;;;;;;2.90;1.60;;;;;;;26.76;50.38;100847.88;5011006;28;20060;-77
2022/08/20 08:44:11;;;;;;;5.22;1.80;;;;;;;26.75;48.94;100833.44;4994180;28;20076;-81
2022/08/20 08:46:42;;;;;;;2.65;2.25;;;;;;;26.87;48.65;100852.50;5016998;28;20060;-78
2022/08/20 08:49:13;;;;;;;1.83;1.70;;;;;;;26.79;50.13;100841.94;4994977;28;20627;-79
2022/08/20 08:51:42;;;;;;;2.78;1.88;;;;;;;26.87;49.31;100847.03;5026770;28;20115;-79
2022/08/20 08:54:18;;;;;;;3.33;1.92;;;;;;;26.79;49.47;100825.59;5026276;28;20631;-79
2022/08/20 08:56:46;;;;;;;3.78;2.00;;;;;;;26.96;49.42;100848.31;5025526;28;20646;-79
2022/08/20 08:59:17;;;;;;;4.75;2.40;;;;;;;26.64;47.71;100780.63;5041525;28;20045;-79
2022/08/20 09:01:56;;;;;;;3.17;2.53;;;;;;;27.02;48.96;100858.25;5022354;28;20490;-79
2022/08/20 09:04:31;;;;;;;2.75;2.00;;;;;;;27.08;48.85;100856.47;5006277;28;20224;-78
2022/08/20 09:07:01;;;;;;;2.95;2.65;;;;;;;27.12;48.76;100851.38;5009789;28;20049;-77
2022/08/20 09:09:31;;;;;;;3.88;2.25;;;;;;;26.94;49.58;100797.84;5009286;28;20159;-77
2022/08/20 09:12:11;;;;;;;2.58;2.05;;;;;;;27.26;49.00;100836.44;5009821;28;20065;-78
2022/08/20 09:14:38;;;;;;;5.18;2.30;;;;;;;27.32;49.27;100854.53;5004784;28;20103;-78
2022/08/20 09:17:05;;;;;;;3.60;2.15;;;;;;;26.92;49.69;100787.22;5022089;28;20138;-78
2022/08/20 09:19:32;;;;;;;5.05;2.08;;;;;;;27.23;48.16;100836.91;5005288;28;20097;-77
2022/08/20 09:22:06;;;;;;;3.90;2.40;;;;;;;27.51;47.80;100851.66;5006666;28;20059;-78
2022/08/20 09:24:33;;;;;;;2.22;2.03;;;;;;;27.64;47.78;100868.53;5004915;28;20053;-78
2022/08/20 09:26:59;;;;;;;2.58;1.90;;;;;;;27.52;48.24;100831.47;5008363;28;20461;-77
2022/08/20 09:29:26;;;;;;;5.20;2.53;;;;;;;27.58;48.12;100841.44;5041099;28;20548;-78
2022/08/20 09:32:03;;;;;;;2.50;2.10;;;;;;;27.88;47.48;100854.81;5008588;28;20516;-78
2022/08/20 09:34:45;;;;;;;2.13;1.92;;;;;;;27.77;48.08;100845.59;5005500;28;20833;-78
2022/08/20 09:37:14;;;;;;;2.53;2.28;;;;;;;27.58;48.39;100811.44;4989464;28;20049;-79
2022/08/20 09:39:41;;;;;;;2.10;1.90;;;;;;;27.97;47.52;100858.00;5005609;28;20180;-78
2022/08/20 09:42:13;;;;;;;3.17;2.33;;;;;;;28.16;46.06;100862.16;5003404;28;20090;-77
2022/08/20 09:44:40;;;;;;;2.25;2.05;;;;;;;28.12;46.65;100855.53;5029901;28;20599;-79
2022/08/20 09:47:08;;;;;;;2.22;2.03;;;;;;;28.19;47.62;100853.47;5010710;28;20556;-79
2022/08/20 09:49:36;;;;;;;6.28;2.20;;;;;;;28.17;48.39;100841.97;5022942;28;20968;-79
2022/08/20 09:52:06;;;;;;;2.22;2.03;;;;;;;28.39;45.78;100860.31;4983926;28;20385;-78
2022/08/20 09:54:34;;;;;;;2.38;1.92;;;;;;;28.42;46.47;100846.16;5009762;28;20049;-77
2022/08/20 09:57:04;;;;;;;3.30;2.00;;;;;;;28.55;45.45;100835.78;5041034;28;20148;-79
2022/08/20 09:59:32;;;;;;;3.15;1.75;;;;;;;28.54;44.70;100860.59;5028312;28;20656;-79
2022/08/20 10:02:00;;;;;;;2.10;1.90;;;;;;;28.69;43.80;100854.53;5007526;28;20080;-79
2022/08/20 10:04:27;;;;;;;2.00;1.80;;;;;;;28.81;44.80;100843.50;4974508;28;20049;-79
2022/08/20 10:06:55;;;;;;;3.70;2.17;;;;;;;28.79;44.67;100853.84;4973578;28;20212;-78
2022/08/20 10:09:22;;;;;;;5.60;1.92;;;;;;;29.01;43.04;100845.66;5003743;28;20237;-80
2022/08/20 10:11:49;;;;;;;1.63;1.52;;;;;;;28.94;44.21;100824.03;5021485;28;20529;-79
2022/08/20 10:14:15;;;;;;;4.07;2.13;;;;;;;28.94;44.79;100804.88;5033176;28;20041;-79
2022/08/20 10:16:42;;;;;;;1.63;1.52;;;;;;;28.78;44.29;100765.59;5026594;28;20172;-79
2022/08/20 10:19:09;;;;;;;2.30;2.10;;;;;;;29.32;43.47;100844.19;5026307;28;20139;-79
2022/08/20 10:21:35;;;;;;;3.15;1.90;;;;;;;29.40;43.39;100843.75;5009038;28;20057;-80
2022/08/20 10:24:04;;;;;;;2.38;1.40;;;;;;;29.44;41.93;100852.25;5008971;28;20056;-79
2022/08/20 10:26:31;;;;;;;6.32;2.17;;;;;;;29.37;40.91;100820.47;5008353;28;20041;-79
2022/08/20 10:28:58;;;;;;;1.95;1.75;;;;;;;29.44;42.92;100830.38;5041346;28;20422;-79
2022/08/20 10:31:25;;;;;;;2.55;1.65;;;;;;;29.61;43.40;100822.91;5024115;28;20053;-79
2022/08/20 10:33:52;;;;;;;1.80;1.45;;;;;;;29.65;40.74;100829.50;5067916;28;20053;-80
2022/08/20 10:36:19;;;;;;;2.72;1.60;;;;;;;29.70;41.97;100832.31;5029007;28;20441;-78
2022/08/20 10:38:47;;;;;;;3.83;2.10;;;;;;;29.89;41.23;100831.97;5063542;28;20053;-78
2022/08/20 10:41:14;;;;;;;4.88;1.63;;;;;;;29.49;40.74;100762.06;5031888;28;20131;-78
2022/08/20 10:43:40;;;;;;;1.65;1.55;;;;;;;29.75;41.71;100787.78;5034157;28;20053;-77
2022/08/20 10:46:07;;;;;;;1.65;1.50;;;;;;;29.89;42.17;100788.19;5030953;28;20497;-77
2022/08/20 10:48:34;;;;;;;4.43;2.15;;;;;;;30.08;40.54;100811.34;5017578;28;20041;-79
2022/08/20 10:51:01;;;;;;;4.43;1.90;;;;;;;30.27;42.42;100821.91;5051030;28;20072;-78
2022/08/20 10:53:28;;;;;;;10.07;2.03;;;;;;;30.18;41.48;100805.13;5051427;28;20041;-78
2022/08/20 10:55:56;;;;;;;2.55;2.00;;;;;;;30.06;41.60;100815.41;5050663;28;20080;-79
2022/08/20 10:58:24;;;;;;;3.90;1.50;;;;;;;30.16;42.13;100818.25;5056929;28;20049;-78
2022/08/20 11:01:02;;;;;;;2.90;1.80;;;;;;;29.89;41.53;100755.34;5049833;28;20063;-77
2022/08/20 11:03:30;;;;;;;2.42;1.83;;;;;;;30.11;40.59;100777.13;4993999;28;20064;-79
2022/08/20 11:05:57;;;;;;;2.03;1.80;;;;;;;30.30;41.16;100786.63;5008894;28;20420;-78
2022/08/20 11:08:24;;;;;;;4.30;2.10;;;;;;;30.51;41.22;100803.97;5031955;28;20132;-78
2022/08/20 11:11:03;;;;;;;3.13;1.75;;;;;;;30.35;42.08;100802.25;5049940;28;20053;-79
2022/08/20 11:13:31;;;;;;;1.45;1.27;;;;;;;30.23;41.49;100786.81;5032813;28;20550;-77
2022/08/20 11:15:58;;;;;;;3.47;1.92;;;;;;;30.24;42.00;100774.78;5028760;28;20473;-79
2022/08/20 11:18:26;;;;;;;3.28;1.50;;;;;;;30.27;41.34;100770.72;5017752;28;20053;-77
2022/08/20 11:20:53;;;;;;;1.70;1.60;;;;;;;30.37;41.47;100800.91;5040174;28;20094;-78
2022/08/20 11:23:19;;;;;;;3.58;1.98;;;;;;;30.49;39.89;100797.13;5040404;28;20375;-77
2022/08/20 11:25:47;;;;;;;1.98;1.70;;;;;;;30.28;41.46;100755.94;5034428;28;20276;-78
2022/08/20 11:28:14;;;;;;;3.90;1.98;;;;;;;30.66;39.16;100792.31;5048654;28;20383;-78
2022/08/20 11:30:41;;;;;;;2.22;2.00;;;;;;;30.77;40.22;100796.75;4977159;28;20141;-78
2022/08/20 11:33:08;;;;;;;6.60;1.88;;;;;;;30.86;40.29;100805.31;5034167;28;20165;-79
2022/08/20 11:35:35;;;;;;;2.40;1.67;;;;;;;30.60;40.09;100768.72;4959369;28;20048;-79
2022/08/20 11:38:15;;;;;;;2.87;1.53;;;;;;;30.78;40.29;100792.06;5048312;28;20585;-79
2022/08/20 11:40:41;;;;;;;2.70;1.85;;;;;;;30.16;40.66;100733.38;5018164;28;20174;-78
2022/08/20 11:43:08;;;;;;;4.85;1.77;;;;;;;30.57;40.50;100752.81;5020252;28;20151;-78
2022/08/20 11:45:51;;;;;;;2.70;1.88;;;;;;;30.84;39.45;100789.13;5024374;28;20124;-79
2022/08/20 11:48:18;;;;;;;5.00;1.75;;;;;;;30.88;39.67;100770.25;4994192;28;20052;-79